sensor_id;sensor_type;location;lat;lon;timestamp;P1;durP1;ratioP1;P2;durP2;ratioP2
1537;SDS011;12022;52.266;10.522;2022-07-05T00:00:46;0.50;;;0.50;;
1537;SDS011;12022;52.266;10.522;2022-07-05T00:03:21;0.50;;;0.50;;
1537;SDS011;12022;52.266;10.522;2022-07-05T00:09:04;0.40;;;0.40;;
1537;SDS011;12022;52.266;10.522;2022-07-05T00:11:58;0.40;;;0.40;;
1537;SDS011;12022;52.266;10.522;2022-07-05T00:15:04;0.40;;;0.40;;
1537;SDS011;12022;52.266;10.522;2022-07-05T00:17:52;0.50;;;0.50;;
1537;SDS011;12022;52.266;10.522;2022-07-05T00:20:20;1.10;;;1.10;;
1537;SDS011;12022;52.266;10.522;2022-07-05T00:22:48;0.50;;;0.50;;
1537;SDS011;12022;52.266;10.522;2022-07-05T00:25:19;0.40;;;0.40;;
1537;SDS011;12022;52.266;10.522;2022-07-05T00:27:49;0.40;;;0.40;;
1537;SDS011;12022;52.266;10.522;2022-07-05T00:30:17;0.40;;;0.40;;
1537;SDS011;12022;52.266;10.522;2022-07-05T00:32:44;0.50;;;0.50;;
1537;SDS011;12022;52.266;10.522;2022-07-05T00:35:12;0.50;;;0.50;;
1537;SDS011;12022;52.266;10.522;2022-07-05T00:37:40;0.40;;;0.40;;
1537;SDS011;12022;52.266;10.522;2022-07-05T00:40:08;0.40;;;0.40;;
1537;SDS011;12022;52.266;10.522;2022-07-05T00:42:38;0.50;;;0.50;;
1537;SDS011;12022;52.266;10.522;2022-07-05T00:45:11;0.50;;;0.50;;
1537;SDS011;12022;52.266;10.522;2022-07-05T00:47:39;0.40;;;0.40;;
1537;SDS011;12022;52.266;10.522;2022-07-05T00:50:06;0.40;;;0.40;;
1537;SDS011;12022;52.266;10.522;2022-07-05T00:52:34;0.40;;;0.40;;
1537;SDS011;12022;52.266;10.522;2022-07-05T00:55:01;0.40;;;0.40;;
1537;SDS011;12022;52.266;10.522;2022-07-05T00:57:29;0.50;;;0.50;;
1537;SDS011;12022;52.266;10.522;2022-07-05T00:59:57;0.40;;;0.40;;
1537;SDS011;12022;52.266;10.522;2022-07-05T01:02:24;0.40;;;0.40;;
1537;SDS011;12022;52.266;10.522;2022-07-05T01:04:52;0.40;;;0.40;;
1537;SDS011;12022;52.266;10.522;2022-07-05T01:07:20;0.40;;;0.40;;
1537;SDS011;12022;52.266;10.522;2022-07-05T01:09:49;0.40;;;0.40;;
1537;SDS011;12022;52.266;10.522;2022-07-05T01:12:17;0.40;;;0.40;;
1537;SDS011;12022;52.266;10.522;2022-07-05T01:14:44;0.40;;;0.40;;
1537;SDS011;12022;52.266;10.522;2022-07-05T01:17:13;0.40;;;0.40;;
1537;SDS011;12022;52.266;10.522;2022-07-05T01:19:42;0.50;;;0.50;;
1537;SDS011;12022;52.266;10.522;2022-07-05T01:22:15;0.43;;;0.43;;
1537;SDS011;12022;52.266;10.522;2022-07-05T01:24:48;0.43;;;0.43;;
1537;SDS011;12022;52.266;10.522;2022-07-05T01:27:17;0.40;;;0.40;;
1537;SDS011;12022;52.266;10.522;2022-07-05T01:29:45;0.50;;;0.50;;
1537;SDS011;12022;52.266;10.522;2022-07-05T01:32:12;0.43;;;0.43;;
1537;SDS011;12022;52.266;10.522;2022-07-05T01:34:40;0.50;;;0.50;;
1537;SDS011;12022;52.266;10.522;2022-07-05T01:37:09;0.40;;;0.40;;
1537;SDS011;12022;52.266;10.522;2022-07-05T01:39:37;0.50;;;0.50;;
1537;SDS011;12022;52.266;10.522;2022-07-05T01:42:05;0.40;;;0.40;;
1537;SDS011;12022;52.266;10.522;2022-07-05T01:44:32;0.50;;;0.50;;
1537;SDS011;12022;52.266;10.522;2022-07-05T01:47:02;0.40;;;0.40;;
1537;SDS011;12022;52.266;10.522;2022-07-05T01:49:36;0.50;;;0.50;;
1537;SDS011;12022;52.266;10.522;2022-07-05T01:52:09;0.40;;;0.40;;
1537;SDS011;12022;52.266;10.522;2022-07-05T01:57:15;0.50;;;0.50;;
1537;SDS011;12022;52.266;10.522;2022-07-05T01:59:42;0.40;;;0.40;;
1537;SDS011;12022;52.266;10.522;2022-07-05T02:02:09;0.40;;;0.40;;
1537;SDS011;12022;52.266;10.522;2022-07-05T02:04:36;0.40;;;0.40;;
1537;SDS011;12022;52.266;10.522;2022-07-05T02:07:07;0.50;;;0.50;;
1537;SDS011;12022;52.266;10.522;2022-07-05T02:09:35;0.40;;;0.40;;
1537;SDS011;12022;52.266;10.522;2022-07-05T02:12:02;0.50;;;0.50;;
1537;SDS011;12022;52.266;10.522;2022-07-05T02:14:30;0.50;;;0.50;;
1537;SDS011;12022;52.266;10.522;2022-07-05T02:16:57;0.50;;;0.50;;
1537;SDS011;12022;52.266;10.522;2022-07-05T02:19:24;0.60;;;0.60;;
1537;SDS011;12022;52.266;10.522;2022-07-05T02:21:51;0.50;;;0.50;;
1537;SDS011;12022;52.266;10.522;2022-07-05T02:24:19;0.50;;;0.50;;
1537;SDS011;12022;52.266;10.522;2022-07-05T02:26:47;0.50;;;0.50;;
1537;SDS011;12022;52.266;10.522;2022-07-05T02:29:15;0.50;;;0.50;;
1537;SDS011;12022;52.266;10.522;2022-07-05T02:31:42;0.40;;;0.40;;
1537;SDS011;12022;52.266;10.522;2022-07-05T02:34:09;0.40;;;0.40;;
1537;SDS011;12022;52.266;10.522;2022-07-05T02:36:36;0.60;;;0.60;;
1537;SDS011;12022;52.266;10.522;2022-07-05T02:39:03;0.60;;;0.60;;
1537;SDS011;12022;52.266;10.522;2022-07-05T02:41:30;0.40;;;0.40;;
1537;SDS011;12022;52.266;10.522;2022-07-05T02:43:57;0.40;;;0.40;;
1537;SDS011;12022;52.266;10.522;2022-07-05T02:46:24;0.47;;;0.47;;
1537;SDS011;12022;52.266;10.522;2022-07-05T02:48:52;0.40;;;0.40;;
1537;SDS011;12022;52.266;10.522;2022-07-05T02:51:24;0.47;;;0.47;;
1537;SDS011;12022;52.266;10.522;2022-07-05T02:53:51;0.50;;;0.50;;
1537;SDS011;12022;52.266;10.522;2022-07-05T02:56:18;0.50;;;0.50;;
1537;SDS011;12022;52.266;10.522;2022-07-05T02:58:45;0.50;;;0.50;;
1537;SDS011;12022;52.266;10.522;2022-07-05T03:01:12;0.53;;;0.53;;
1537;SDS011;12022;52.266;10.522;2022-07-05T03:03:39;0.40;;;0.40;;
1537;SDS011;12022;52.266;10.522;2022-07-05T03:06:06;0.40;;;0.40;;
1537;SDS011;12022;52.266;10.522;2022-07-05T03:08:33;0.40;;;0.40;;
1537;SDS011;12022;52.266;10.522;2022-07-05T03:11:01;0.50;;;0.50;;
1537;SDS011;12022;52.266;10.522;2022-07-05T03:13:29;0.50;;;0.50;;
1537;SDS011;12022;52.266;10.522;2022-07-05T03:15:56;0.40;;;0.40;;
1537;SDS011;12022;52.266;10.522;2022-07-05T03:18:23;0.40;;;0.40;;
1537;SDS011;12022;52.266;10.522;2022-07-05T03:20:51;0.50;;;0.50;;
1537;SDS011;12022;52.266;10.522;2022-07-05T03:23:19;0.40;;;0.40;;
1537;SDS011;12022;52.266;10.522;2022-07-05T03:25:46;0.40;;;0.40;;
1537;SDS011;12022;52.266;10.522;2022-07-05T03:28:13;0.50;;;0.50;;
1537;SDS011;12022;52.266;10.522;2022-07-05T03:30:40;0.50;;;0.50;;
1537;SDS011;12022;52.266;10.522;2022-07-05T03:33:07;0.50;;;0.50;;
1537;SDS011;12022;52.266;10.522;2022-07-05T03:35:34;0.43;;;0.43;;
1537;SDS011;12022;52.266;10.522;2022-07-05T03:38:01;0.40;;;0.40;;
1537;SDS011;12022;52.266;10.522;2022-07-05T03:40:28;0.50;;;0.50;;
1537;SDS011;12022;52.266;10.522;2022-07-05T03:42:55;0.40;;;0.40;;
1537;SDS011;12022;52.266;10.522;2022-07-05T03:45:22;0.50;;;0.50;;
1537;SDS011;12022;52.266;10.522;2022-07-05T03:47:49;0.40;;;0.40;;
1537;SDS011;12022;52.266;10.522;2022-07-05T03:50:16;0.47;;;0.47;;
1537;SDS011;12022;52.266;10.522;2022-07-05T03:52:43;0.40;;;0.40;;
1537;SDS011;12022;52.266;10.522;2022-07-05T03:55:10;0.40;;;0.40;;
1537;SDS011;12022;52.266;10.522;2022-07-05T03:57:37;0.50;;;0.50;;
1537;SDS011;12022;52.266;10.522;2022-07-05T04:00:04;0.43;;;0.43;;
1537;SDS011;12022;52.266;10.522;2022-07-05T04:02:32;0.47;;;0.47;;
1537;SDS011;12022;52.266;10.522;2022-07-05T04:04:59;0.40;;;0.40;;
1537;SDS011;12022;52.266;10.522;2022-07-05T04:07:26;0.50;;;0.50;;
1537;SDS011;12022;52.266;10.522;2022-07-05T04:09:53;0.40;;;0.40;;
1537;SDS011;12022;52.266;10.522;2022-07-05T04:12:20;0.50;;;0.50;;
1537;SDS011;12022;52.266;10.522;2022-07-05T04:14:47;0.43;;;0.43;;
1537;SDS011;12022;52.266;10.522;2022-07-05T04:17:14;0.50;;;0.50;;
1537;SDS011;12022;52.266;10.522;2022-07-05T04:19:41;0.67;;;0.67;;
1537;SDS011;12022;52.266;10.522;2022-07-05T04:22:09;0.40;;;0.40;;
1537;SDS011;12022;52.266;10.522;2022-07-05T04:24:36;0.50;;;0.50;;
1537;SDS011;12022;52.266;10.522;2022-07-05T04:27:23;0.50;;;0.50;;
1537;SDS011;12022;52.266;10.522;2022-07-05T04:29:50;0.50;;;0.50;;
1537;SDS011;12022;52.266;10.522;2022-07-05T04:32:17;0.73;;;0.73;;
1537;SDS011;12022;52.266;10.522;2022-07-05T04:34:44;0.40;;;0.40;;
1537;SDS011;12022;52.266;10.522;2022-07-05T04:37:11;0.40;;;0.40;;
1537;SDS011;12022;52.266;10.522;2022-07-05T04:39:38;0.40;;;0.40;;
1537;SDS011;12022;52.266;10.522;2022-07-05T04:42:05;0.50;;;0.50;;
1537;SDS011;12022;52.266;10.522;2022-07-05T04:44:32;0.50;;;0.50;;
1537;SDS011;12022;52.266;10.522;2022-07-05T04:46:59;0.60;;;0.60;;
1537;SDS011;12022;52.266;10.522;2022-07-05T04:49:26;0.60;;;0.60;;
1537;SDS011;12022;52.266;10.522;2022-07-05T04:51:53;0.50;;;0.50;;
1537;SDS011;12022;52.266;10.522;2022-07-05T04:54:20;0.57;;;0.57;;
1537;SDS011;12022;52.266;10.522;2022-07-05T04:56:47;0.60;;;0.60;;
1537;SDS011;12022;52.266;10.522;2022-07-05T04:59:14;0.50;;;0.50;;
1537;SDS011;12022;52.266;10.522;2022-07-05T05:01:41;0.60;;;0.60;;
1537;SDS011;12022;52.266;10.522;2022-07-05T05:04:08;0.60;;;0.60;;
1537;SDS011;12022;52.266;10.522;2022-07-05T05:06:35;0.60;;;0.60;;
1537;SDS011;12022;52.266;10.522;2022-07-05T05:09:02;0.70;;;0.70;;
1537;SDS011;12022;52.266;10.522;2022-07-05T05:11:30;0.70;;;0.70;;
1537;SDS011;12022;52.266;10.522;2022-07-05T05:13:57;0.70;;;0.70;;
1537;SDS011;12022;52.266;10.522;2022-07-05T05:16:24;0.87;;;0.87;;
1537;SDS011;12022;52.266;10.522;2022-07-05T05:18:55;0.80;;;0.80;;
1537;SDS011;12022;52.266;10.522;2022-07-05T05:21:22;0.97;;;0.97;;
1537;SDS011;12022;52.266;10.522;2022-07-05T05:23:49;0.80;;;0.80;;
1537;SDS011;12022;52.266;10.522;2022-07-05T05:26:16;1.13;;;1.13;;
1537;SDS011;12022;52.266;10.522;2022-07-05T05:28:43;0.87;;;0.87;;
1537;SDS011;12022;52.266;10.522;2022-07-05T05:31:11;0.77;;;0.77;;
1537;SDS011;12022;52.266;10.522;2022-07-05T05:33:38;0.83;;;0.83;;
1537;SDS011;12022;52.266;10.522;2022-07-05T05:36:06;0.83;;;0.83;;
1537;SDS011;12022;52.266;10.522;2022-07-05T05:38:33;0.70;;;0.70;;
1537;SDS011;12022;52.266;10.522;2022-07-05T05:41:00;0.83;;;0.83;;
1537;SDS011;12022;52.266;10.522;2022-07-05T05:43:27;1.07;;;1.07;;
1537;SDS011;12022;52.266;10.522;2022-07-05T05:45:54;1.20;;;1.20;;
1537;SDS011;12022;52.266;10.522;2022-07-05T05:48:21;1.00;;;1.00;;
1537;SDS011;12022;52.266;10.522;2022-07-05T05:50:49;1.10;;;1.10;;
1537;SDS011;12022;52.266;10.522;2022-07-05T05:53:17;0.80;;;0.80;;
1537;SDS011;12022;52.266;10.522;2022-07-05T05:55:44;0.70;;;0.70;;
1537;SDS011;12022;52.266;10.522;2022-07-05T06:00:41;0.87;;;0.87;;
1537;SDS011;12022;52.266;10.522;2022-07-05T06:03:09;0.97;;;0.97;;
1537;SDS011;12022;52.266;10.522;2022-07-05T06:05:36;1.30;;;1.30;;
1537;SDS011;12022;52.266;10.522;2022-07-05T06:08:03;1.53;;;1.53;;
1537;SDS011;12022;52.266;10.522;2022-07-05T06:10:31;1.50;;;1.50;;
1537;SDS011;12022;52.266;10.522;2022-07-05T06:13:01;1.10;;;1.10;;
1537;SDS011;12022;52.266;10.522;2022-07-05T06:15:29;1.23;;;1.23;;
1537;SDS011;12022;52.266;10.522;2022-07-05T06:17:56;0.97;;;0.97;;
1537;SDS011;12022;52.266;10.522;2022-07-05T06:20:25;0.93;;;0.93;;
1537;SDS011;12022;52.266;10.522;2022-07-05T06:22:53;1.10;;;1.10;;
1537;SDS011;12022;52.266;10.522;2022-07-05T06:25:21;1.13;;;1.13;;
1537;SDS011;12022;52.266;10.522;2022-07-05T06:27:51;1.23;;;1.23;;
1537;SDS011;12022;52.266;10.522;2022-07-05T06:30:20;1.10;;;1.10;;
1537;SDS011;12022;52.266;10.522;2022-07-05T06:32:49;1.00;;;1.00;;
1537;SDS011;12022;52.266;10.522;2022-07-05T06:35:17;0.83;;;0.83;;
1537;SDS011;12022;52.266;10.522;2022-07-05T06:37:46;0.73;;;0.73;;
1537;SDS011;12022;52.266;10.522;2022-07-05T06:40:37;0.60;;;0.60;;
1537;SDS011;12022;52.266;10.522;2022-07-05T06:43:09;1.00;;;1.00;;
1537;SDS011;12022;52.266;10.522;2022-07-05T06:45:38;0.90;;;0.90;;
1537;SDS011;12022;52.266;10.522;2022-07-05T06:48:07;1.00;;;1.00;;
1537;SDS011;12022;52.266;10.522;2022-07-05T06:50:36;1.07;;;1.07;;
1537;SDS011;12022;52.266;10.522;2022-07-05T06:53:07;1.10;;;1.10;;
1537;SDS011;12022;52.266;10.522;2022-07-05T06:55:34;0.80;;;0.80;;
1537;SDS011;12022;52.266;10.522;2022-07-05T06:58:03;1.00;;;1.00;;
1537;SDS011;12022;52.266;10.522;2022-07-05T07:00:40;1.00;;;1.00;;
1537;SDS011;12022;52.266;10.522;2022-07-05T07:03:28;0.80;;;0.80;;
1537;SDS011;12022;52.266;10.522;2022-07-05T07:06:15;0.83;;;0.83;;
1537;SDS011;12022;52.266;10.522;2022-07-05T07:08:42;0.90;;;0.90;;
1537;SDS011;12022;52.266;10.522;2022-07-05T07:11:28;0.70;;;0.70;;
1537;SDS011;12022;52.266;10.522;2022-07-05T07:13:56;1.37;;;1.37;;
1537;SDS011;12022;52.266;10.522;2022-07-05T07:16:23;1.97;;;1.97;;
1537;SDS011;12022;52.266;10.522;2022-07-05T07:18:52;0.80;;;0.80;;
1537;SDS011;12022;52.266;10.522;2022-07-05T07:21:36;1.23;;;1.23;;
1537;SDS011;12022;52.266;10.522;2022-07-05T07:24:04;1.17;;;1.17;;
1537;SDS011;12022;52.266;10.522;2022-07-05T07:26:32;1.00;;;1.00;;
1537;SDS011;12022;52.266;10.522;2022-07-05T07:29:19;1.23;;;1.23;;
1537;SDS011;12022;52.266;10.522;2022-07-05T07:31:46;2.23;;;2.23;;
1537;SDS011;12022;52.266;10.522;2022-07-05T07:34:13;1.90;;;1.90;;
1537;SDS011;12022;52.266;10.522;2022-07-05T07:36:41;2.30;;;2.30;;
1537;SDS011;12022;52.266;10.522;2022-07-05T07:39:08;5.40;;;5.30;;
1537;SDS011;12022;52.266;10.522;2022-07-05T07:41:35;3.97;;;3.97;;
1537;SDS011;12022;52.266;10.522;2022-07-05T07:44:03;3.00;;;3.00;;
1537;SDS011;12022;52.266;10.522;2022-07-05T07:46:30;2.37;;;2.37;;
1537;SDS011;12022;52.266;10.522;2022-07-05T07:48:57;2.63;;;2.63;;
1537;SDS011;12022;52.266;10.522;2022-07-05T07:51:24;2.23;;;2.23;;
1537;SDS011;12022;52.266;10.522;2022-07-05T07:53:52;2.90;;;2.90;;
1537;SDS011;12022;52.266;10.522;2022-07-05T07:56:33;4.20;;;4.20;;
1537;SDS011;12022;52.266;10.522;2022-07-05T07:59:00;3.30;;;3.30;;
1537;SDS011;12022;52.266;10.522;2022-07-05T08:01:28;2.00;;;2.00;;
1537;SDS011;12022;52.266;10.522;2022-07-05T08:03:57;1.40;;;1.40;;
1537;SDS011;12022;52.266;10.522;2022-07-05T08:06:24;2.57;;;2.57;;
1537;SDS011;12022;52.266;10.522;2022-07-05T08:08:51;1.43;;;1.43;;
1537;SDS011;12022;52.266;10.522;2022-07-05T08:11:18;1.63;;;1.63;;
1537;SDS011;12022;52.266;10.522;2022-07-05T08:13:58;1.87;;;1.87;;
1537;SDS011;12022;52.266;10.522;2022-07-05T08:16:27;2.03;;;2.03;;
1537;SDS011;12022;52.266;10.522;2022-07-05T08:18:54;1.33;;;1.33;;
1537;SDS011;12022;52.266;10.522;2022-07-05T08:21:40;1.20;;;1.20;;
1537;SDS011;12022;52.266;10.522;2022-07-05T08:24:08;1.27;;;1.27;;
1537;SDS011;12022;52.266;10.522;2022-07-05T08:26:38;1.00;;;1.00;;
1537;SDS011;12022;52.266;10.522;2022-07-05T08:29:07;0.90;;;0.90;;
1537;SDS011;12022;52.266;10.522;2022-07-05T08:31:37;2.30;;;2.30;;
1537;SDS011;12022;52.266;10.522;2022-07-05T08:34:05;2.60;;;2.60;;
1537;SDS011;12022;52.266;10.522;2022-07-05T08:36:32;0.90;;;0.90;;
1537;SDS011;12022;52.266;10.522;2022-07-05T08:39:00;1.10;;;1.10;;
1537;SDS011;12022;52.266;10.522;2022-07-05T08:41:28;1.00;;;1.00;;
1537;SDS011;12022;52.266;10.522;2022-07-05T08:43:57;0.80;;;0.80;;
1537;SDS011;12022;52.266;10.522;2022-07-05T08:46:26;0.60;;;0.60;;
1537;SDS011;12022;52.266;10.522;2022-07-05T08:49:00;1.00;;;1.00;;
1537;SDS011;12022;52.266;10.522;2022-07-05T08:51:38;0.90;;;0.90;;
1537;SDS011;12022;52.266;10.522;2022-07-05T08:54:08;0.80;;;0.80;;
1537;SDS011;12022;52.266;10.522;2022-07-05T08:56:45;0.80;;;0.80;;
1537;SDS011;12022;52.266;10.522;2022-07-05T08:59:32;0.50;;;0.50;;
1537;SDS011;12022;52.266;10.522;2022-07-05T09:02:00;0.60;;;0.60;;
1537;SDS011;12022;52.266;10.522;2022-07-05T09:04:32;0.60;;;0.60;;
1537;SDS011;12022;52.266;10.522;2022-07-05T09:07:04;0.50;;;0.50;;
1537;SDS011;12022;52.266;10.522;2022-07-05T09:09:37;0.50;;;0.50;;
1537;SDS011;12022;52.266;10.522;2022-07-05T09:12:11;0.40;;;0.40;;
1537;SDS011;12022;52.266;10.522;2022-07-05T09:14:55;0.40;;;0.40;;
1537;SDS011;12022;52.266;10.522;2022-07-05T09:17:23;0.40;;;0.40;;
1537;SDS011;12022;52.266;10.522;2022-07-05T09:22:49;0.50;;;0.50;;
1537;SDS011;12022;52.266;10.522;2022-07-05T09:28:04;0.60;;;0.60;;
1537;SDS011;12022;52.266;10.522;2022-07-05T09:33:04;0.60;;;0.60;;
1537;SDS011;12022;52.266;10.522;2022-07-05T09:35:39;0.60;;;0.60;;
1537;SDS011;12022;52.266;10.522;2022-07-05T09:38:18;0.70;;;0.70;;
1537;SDS011;12022;52.266;10.522;2022-07-05T09:40:47;0.70;;;0.70;;
1537;SDS011;12022;52.266;10.522;2022-07-05T09:43:24;0.80;;;0.80;;
1537;SDS011;12022;52.266;10.522;2022-07-05T09:46:00;0.90;;;0.90;;
1537;SDS011;12022;52.266;10.522;2022-07-05T09:51:46;0.70;;;0.70;;
1537;SDS011;12022;52.266;10.522;2022-07-05T09:54:22;0.90;;;0.90;;
1537;SDS011;12022;52.266;10.522;2022-07-05T09:56:49;0.97;;;0.97;;
1537;SDS011;12022;52.266;10.522;2022-07-05T10:02:36;0.70;;;0.70;;
1537;SDS011;12022;52.266;10.522;2022-07-05T10:05:09;0.50;;;0.50;;
1537;SDS011;12022;52.266;10.522;2022-07-05T10:07:42;0.70;;;0.70;;
1537;SDS011;12022;52.266;10.522;2022-07-05T10:10:19;0.50;;;0.50;;
1537;SDS011;12022;52.266;10.522;2022-07-05T10:12:51;1.00;;;1.00;;
1537;SDS011;12022;52.266;10.522;2022-07-05T10:15:20;1.20;;;1.20;;
1537;SDS011;12022;52.266;10.522;2022-07-05T10:18:11;0.70;;;0.70;;
1537;SDS011;12022;52.266;10.522;2022-07-05T10:23:15;0.60;;;0.60;;
1537;SDS011;12022;52.266;10.522;2022-07-05T10:25:45;0.57;;;0.57;;
1537;SDS011;12022;52.266;10.522;2022-07-05T10:28:16;0.50;;;0.50;;
1537;SDS011;12022;52.266;10.522;2022-07-05T10:30:45;0.40;;;0.40;;
1537;SDS011;12022;52.266;10.522;2022-07-05T10:33:13;0.60;;;0.60;;
1537;SDS011;12022;52.266;10.522;2022-07-05T10:35:45;0.60;;;0.60;;
1537;SDS011;12022;52.266;10.522;2022-07-05T10:38:13;0.80;;;0.80;;
1537;SDS011;12022;52.266;10.522;2022-07-05T10:40:41;0.50;;;0.50;;
1537;SDS011;12022;52.266;10.522;2022-07-05T10:43:13;0.70;;;0.70;;
1537;SDS011;12022;52.266;10.522;2022-07-05T10:45:49;0.80;;;0.80;;
1537;SDS011;12022;52.266;10.522;2022-07-05T10:48:24;0.73;;;0.73;;
1537;SDS011;12022;52.266;10.522;2022-07-05T10:54:10;0.80;;;0.80;;
1537;SDS011;12022;52.266;10.522;2022-07-05T10:56:21;0.60;;;0.60;;
1537;SDS011;12022;52.266;10.522;2022-07-05T10:58:48;0.50;;;0.50;;
1537;SDS011;12022;52.266;10.522;2022-07-05T11:01:33;0.50;;;0.50;;
1537;SDS011;12022;52.266;10.522;2022-07-05T11:11:37;0.60;;;0.60;;
1537;SDS011;12022;52.266;10.522;2022-07-05T11:16:46;0.80;;;0.80;;
1537;SDS011;12022;52.266;10.522;2022-07-05T11:19:16;0.60;;;0.60;;
1537;SDS011;12022;52.266;10.522;2022-07-05T11:22:03;0.60;;;0.60;;
1537;SDS011;12022;52.266;10.522;2022-07-05T11:24:34;0.70;;;0.70;;
1537;SDS011;12022;52.266;10.522;2022-07-05T11:27:04;0.87;;;0.87;;
1537;SDS011;12022;52.266;10.522;2022-07-05T11:32:11;0.70;;;0.70;;
1537;SDS011;12022;52.266;10.522;2022-07-05T11:34:42;0.50;;;0.50;;
1537;SDS011;12022;52.266;10.522;2022-07-05T11:42:47;0.50;;;0.50;;
1537;SDS011;12022;52.266;10.522;2022-07-05T11:45:15;0.50;;;0.50;;
1537;SDS011;12022;52.266;10.522;2022-07-05T11:47:43;0.50;;;0.50;;
1537;SDS011;12022;52.266;10.522;2022-07-05T11:50:11;0.50;;;0.50;;
1537;SDS011;12022;52.266;10.522;2022-07-05T11:52:39;0.50;;;0.50;;
1537;SDS011;12022;52.266;10.522;2022-07-05T11:55:08;0.60;;;0.60;;
1537;SDS011;12022;52.266;10.522;2022-07-05T11:57:36;0.60;;;0.60;;
1537;SDS011;12022;52.266;10.522;2022-07-05T12:00:14;0.60;;;0.60;;
1537;SDS011;12022;52.266;10.522;2022-07-05T12:02:55;0.50;;;0.50;;
1537;SDS011;12022;52.266;10.522;2022-07-05T12:05:22;0.40;;;0.40;;
1537;SDS011;12022;52.266;10.522;2022-07-05T12:07:51;0.50;;;0.50;;
1537;SDS011;12022;52.266;10.522;2022-07-05T12:10:19;0.70;;;0.70;;
1537;SDS011;12022;52.266;10.522;2022-07-05T12:13:25;0.60;;;0.60;;
1537;SDS011;12022;52.266;10.522;2022-07-05T12:16:01;0.50;;;0.50;;
1537;SDS011;12022;52.266;10.522;2022-07-05T12:18:29;0.50;;;0.50;;
1537;SDS011;12022;52.266;10.522;2022-07-05T12:20:56;0.50;;;0.50;;
1537;SDS011;12022;52.266;10.522;2022-07-05T12:23:27;0.40;;;0.40;;
1537;SDS011;12022;52.266;10.522;2022-07-05T12:25:54;0.50;;;0.50;;
1537;SDS011;12022;52.266;10.522;2022-07-05T12:28:24;0.50;;;0.50;;
1537;SDS011;12022;52.266;10.522;2022-07-05T12:30:52;0.40;;;0.40;;
1537;SDS011;12022;52.266;10.522;2022-07-05T12:33:22;0.50;;;0.50;;
1537;SDS011;12022;52.266;10.522;2022-07-05T12:35:50;0.50;;;0.50;;
1537;SDS011;12022;52.266;10.522;2022-07-05T12:38:18;0.50;;;0.50;;
1537;SDS011;12022;52.266;10.522;2022-07-05T12:40:47;0.50;;;0.50;;
1537;SDS011;12022;52.266;10.522;2022-07-05T12:43:16;0.50;;;0.50;;
1537;SDS011;12022;52.266;10.522;2022-07-05T12:46:01;0.40;;;0.40;;
1537;SDS011;12022;52.266;10.522;2022-07-05T12:48:37;0.60;;;0.60;;
1537;SDS011;12022;52.266;10.522;2022-07-05T12:51:07;0.60;;;0.60;;
1537;SDS011;12022;52.266;10.522;2022-07-05T12:53:45;0.60;;;0.60;;
1537;SDS011;12022;52.266;10.522;2022-07-05T12:56:33;0.70;;;0.70;;
1537;SDS011;12022;52.266;10.522;2022-07-05T12:59:39;0.60;;;0.60;;
1537;SDS011;12022;52.266;10.522;2022-07-05T13:05:05;0.50;;;0.50;;
1537;SDS011;12022;52.266;10.522;2022-07-05T13:07:40;0.50;;;0.50;;
1537;SDS011;12022;52.266;10.522;2022-07-05T13:10:13;0.50;;;0.50;;
1537;SDS011;12022;52.266;10.522;2022-07-05T13:12:41;0.87;;;0.87;;
1537;SDS011;12022;52.266;10.522;2022-07-05T13:15:08;0.60;;;0.60;;
1537;SDS011;12022;52.266;10.522;2022-07-05T13:17:36;2.07;;;2.07;;
1537;SDS011;12022;52.266;10.522;2022-07-05T13:20:04;0.70;;;0.70;;
1537;SDS011;12022;52.266;10.522;2022-07-05T13:22:32;0.80;;;0.80;;
1537;SDS011;12022;52.266;10.522;2022-07-05T13:24:59;1.00;;;1.00;;
1537;SDS011;12022;52.266;10.522;2022-07-05T13:27:27;0.60;;;0.60;;
1537;SDS011;12022;52.266;10.522;2022-07-05T13:29:55;0.70;;;0.70;;
1537;SDS011;12022;52.266;10.522;2022-07-05T13:32:22;0.60;;;0.60;;
1537;SDS011;12022;52.266;10.522;2022-07-05T13:34:49;0.80;;;0.80;;
1537;SDS011;12022;52.266;10.522;2022-07-05T13:37:18;0.90;;;0.90;;
1537;SDS011;12022;52.266;10.522;2022-07-05T13:39:45;0.90;;;0.90;;
1537;SDS011;12022;52.266;10.522;2022-07-05T13:42:12;1.23;;;1.23;;
1537;SDS011;12022;52.266;10.522;2022-07-05T13:44:40;0.67;;;0.67;;
1537;SDS011;12022;52.266;10.522;2022-07-05T13:47:07;0.60;;;0.60;;
1537;SDS011;12022;52.266;10.522;2022-07-05T13:49:34;0.60;;;0.60;;
1537;SDS011;12022;52.266;10.522;2022-07-05T13:52:01;0.60;;;0.60;;
1537;SDS011;12022;52.266;10.522;2022-07-05T13:54:28;0.60;;;0.60;;
1537;SDS011;12022;52.266;10.522;2022-07-05T13:56:56;0.67;;;0.67;;
1537;SDS011;12022;52.266;10.522;2022-07-05T13:59:23;0.53;;;0.53;;
1537;SDS011;12022;52.266;10.522;2022-07-05T14:01:50;0.57;;;0.57;;
1537;SDS011;12022;52.266;10.522;2022-07-05T14:04:18;0.50;;;0.50;;
1537;SDS011;12022;52.266;10.522;2022-07-05T14:06:45;0.47;;;0.47;;
1537;SDS011;12022;52.266;10.522;2022-07-05T14:09:13;0.60;;;0.60;;
1537;SDS011;12022;52.266;10.522;2022-07-05T14:11:40;0.40;;;0.40;;
1537;SDS011;12022;52.266;10.522;2022-07-05T14:14:06;0.50;;;0.50;;
1537;SDS011;12022;52.266;10.522;2022-07-05T14:16:34;0.70;;;0.70;;
1537;SDS011;12022;52.266;10.522;2022-07-05T14:19:01;0.53;;;0.53;;
1537;SDS011;12022;52.266;10.522;2022-07-05T14:21:28;0.50;;;0.50;;
1537;SDS011;12022;52.266;10.522;2022-07-05T14:24:04;0.50;;;0.50;;
1537;SDS011;12022;52.266;10.522;2022-07-05T14:26:32;0.50;;;0.50;;
1537;SDS011;12022;52.266;10.522;2022-07-05T14:29:00;0.50;;;0.50;;
1537;SDS011;12022;52.266;10.522;2022-07-05T14:31:28;0.50;;;0.50;;
1537;SDS011;12022;52.266;10.522;2022-07-05T14:33:58;0.40;;;0.40;;
1537;SDS011;12022;52.266;10.522;2022-07-05T14:36:26;0.50;;;0.50;;
1537;SDS011;12022;52.266;10.522;2022-07-05T14:38:53;0.53;;;0.53;;
1537;SDS011;12022;52.266;10.522;2022-07-05T14:41:20;0.50;;;0.50;;
1537;SDS011;12022;52.266;10.522;2022-07-05T14:43:47;0.60;;;0.60;;
1537;SDS011;12022;52.266;10.522;2022-07-05T14:46:14;0.80;;;0.80;;
1537;SDS011;12022;52.266;10.522;2022-07-05T14:48:45;0.50;;;0.50;;
1537;SDS011;12022;52.266;10.522;2022-07-05T14:51:13;0.50;;;0.50;;
1537;SDS011;12022;52.266;10.522;2022-07-05T14:53:40;0.70;;;0.70;;
1537;SDS011;12022;52.266;10.522;2022-07-05T14:56:15;0.60;;;0.60;;
1537;SDS011;12022;52.266;10.522;2022-07-05T14:58:42;0.60;;;0.60;;
1537;SDS011;12022;52.266;10.522;2022-07-05T15:01:10;0.70;;;0.70;;
1537;SDS011;12022;52.266;10.522;2022-07-05T15:03:38;0.60;;;0.60;;
1537;SDS011;12022;52.266;10.522;2022-07-05T15:06:06;0.60;;;0.60;;
1537;SDS011;12022;52.266;10.522;2022-07-05T15:08:33;0.80;;;0.80;;
1537;SDS011;12022;52.266;10.522;2022-07-05T15:11:00;0.80;;;0.80;;
1537;SDS011;12022;52.266;10.522;2022-07-05T15:13:27;0.60;;;0.60;;
1537;SDS011;12022;52.266;10.522;2022-07-05T15:15:54;0.57;;;0.57;;
1537;SDS011;12022;52.266;10.522;2022-07-05T15:18:23;0.60;;;0.60;;
1537;SDS011;12022;52.266;10.522;2022-07-05T15:20:51;0.80;;;0.80;;
1537;SDS011;12022;52.266;10.522;2022-07-05T15:23:25;0.90;;;0.90;;
1537;SDS011;12022;52.266;10.522;2022-07-05T15:25:54;0.60;;;0.60;;
1537;SDS011;12022;52.266;10.522;2022-07-05T15:28:21;0.70;;;0.70;;
1537;SDS011;12022;52.266;10.522;2022-07-05T15:30:48;0.60;;;0.60;;
1537;SDS011;12022;52.266;10.522;2022-07-05T15:33:16;1.00;;;1.00;;
1537;SDS011;12022;52.266;10.522;2022-07-05T15:35:44;0.80;;;0.80;;
1537;SDS011;12022;52.266;10.522;2022-07-05T15:38:11;0.60;;;0.60;;
1537;SDS011;12022;52.266;10.522;2022-07-05T15:40:38;0.60;;;0.60;;
1537;SDS011;12022;52.266;10.522;2022-07-05T15:43:05;0.70;;;0.70;;
1537;SDS011;12022;52.266;10.522;2022-07-05T15:45:32;0.60;;;0.60;;
1537;SDS011;12022;52.266;10.522;2022-07-05T15:47:58;0.53;;;0.53;;
1537;SDS011;12022;52.266;10.522;2022-07-05T15:50:25;0.57;;;0.57;;
1537;SDS011;12022;52.266;10.522;2022-07-05T15:52:52;0.50;;;0.50;;